createdAt,value
2023-01-29T00:02:01.449Z,86.42
2023-01-29T00:04:36.775Z,85.88
2023-01-29T00:07:07.225Z,85.91
2023-01-29T00:09:44.038Z,85.12
2023-01-29T00:12:16.097Z,84.76
2023-01-29T00:14:48.831Z,86.73
2023-01-29T00:17:21.423Z,87.10
2023-01-29T00:19:53.283Z,85.90
2023-01-29T00:22:24.999Z,86.18
2023-01-29T00:25:03.909Z,86.86
2023-01-29T00:27:34.861Z,86.66
2023-01-29T00:30:12.796Z,87.26
2023-01-29T00:32:41.379Z,87.64
2023-01-29T00:35:23.834Z,87.65
2023-01-29T00:37:53.656Z,86.71
2023-01-29T00:40:34.185Z,85.02
2023-01-29T00:43:22.201Z,85.06
2023-01-29T00:45:51.669Z,86.56
2023-01-29T00:48:23.261Z,87.08
2023-01-29T00:50:54.631Z,85.33
2023-01-29T00:53:32.310Z,85.12
2023-01-29T00:56:06.091Z,86.16
2023-01-29T00:58:39.596Z,85.74
2023-01-29T01:01:16.815Z,86.25
2023-01-29T01:03:48.634Z,85.26
2023-01-29T01:06:22.906Z,85.12
2023-01-29T01:09:10.124Z,85.04
2023-01-29T01:11:45.613Z,84.36
2023-01-29T01:14:25.003Z,83.96
2023-01-29T01:16:55.805Z,83.58
2023-01-29T01:19:27.578Z,82.67
2023-01-29T01:34:32.840Z,83.76
2023-01-29T01:37:20.071Z,83.29
2023-01-29T01:39:52.349Z,84.39
2023-01-29T01:42:21.992Z,84.18
2023-01-29T01:45:12.542Z,83.64
2023-01-29T01:57:19.697Z,84.06
2023-01-29T02:00:10.315Z,84.34
2023-01-29T02:06:03.870Z,83.49
2023-01-29T02:08:59.043Z,84.36
2023-01-29T02:11:34.744Z,83.64
2023-01-29T02:14:13.908Z,84.20
2023-01-29T02:16:46.752Z,84.46
2023-01-29T02:19:25.718Z,83.28
2023-01-29T02:37:10.941Z,81.44
2023-01-29T02:39:53.158Z,79.74
2023-01-29T02:42:40.278Z,80.52
2023-01-29T02:45:18.280Z,79.61
2023-01-29T02:50:58.138Z,80.66
2023-01-29T02:53:53.115Z,80.80
2023-01-29T02:56:24.438Z,81.62
2023-01-29T02:59:01.078Z,80.88
2023-01-29T03:01:36.652Z,80.90
2023-01-29T03:04:10.624Z,81.73
2023-01-29T03:06:53.395Z,80.92
2023-01-29T03:09:40.737Z,81.33
2023-01-29T03:12:29.694Z,81.58
2023-01-29T03:15:20.784Z,80.87
2023-01-29T03:18:15.527Z,80.91
2023-01-29T03:20:49.883Z,80.99
2023-01-29T03:23:24.384Z,80.56
2023-01-29T03:26:28.313Z,80.36
2023-01-29T03:29:18.630Z,81.31
2023-01-29T03:32:07.331Z,80.22
2023-01-29T03:35:12.829Z,79.73
2023-01-29T03:37:45.673Z,78.94
2023-01-29T03:43:28.361Z,80.65
2023-01-29T03:46:23.569Z,80.05
2023-01-29T03:48:57.496Z,79.28
2023-01-29T03:52:01.061Z,79.64
2023-01-29T03:54:38.306Z,80.22
2023-01-29T03:57:20.301Z,80.35
2023-01-29T04:00:04.327Z,78.23
2023-01-29T04:03:01.160Z,79.58
2023-01-29T04:05:36.743Z,79.21
2023-01-29T04:08:37.772Z,79.74
2023-01-29T04:11:16.933Z,78.85
2023-01-29T04:13:48.623Z,78.71
2023-01-29T04:16:30.093Z,78.82
2023-01-29T04:19:25.016Z,78.97
2023-01-29T04:22:05.325Z,79.09
2023-01-29T04:24:41.405Z,79.85
2023-01-29T04:27:24.554Z,78.60
2023-01-29T04:30:20.583Z,79.11
2023-01-29T04:55:38.855Z,78.80
2023-01-29T04:58:11.213Z,77.61
2023-01-29T05:06:12.701Z,76.13
2023-01-29T05:08:43.585Z,75.31
2023-01-29T05:11:29.597Z,74.44
2023-01-29T05:14:00.464Z,74.44
2023-01-29T05:16:42.265Z,74.54
2023-01-29T05:25:50.896Z,73.04
2023-01-29T05:31:35.395Z,73.40
2023-01-29T05:34:11.382Z,74.00
2023-01-29T05:39:56.718Z,72.46
2023-01-29T05:42:27.586Z,73.62
2023-01-29T05:44:59.153Z,74.30
2023-01-29T05:47:32.239Z,74.20
2023-01-29T05:50:10.864Z,74.43
2023-01-29T05:56:30.027Z,73.25
2023-01-29T05:59:01.379Z,73.27
2023-01-29T06:01:33.164Z,73.29
2023-01-29T06:04:17.389Z,73.95
2023-01-29T06:09:43.468Z,72.63
2023-01-29T06:12:32.232Z,73.10
2023-01-29T06:15:05.293Z,73.42
2023-01-29T06:17:42.994Z,72.97
2023-01-29T06:20:31.912Z,72.99
2023-01-29T06:23:03.576Z,73.32
2023-01-29T06:25:36.781Z,72.46
2023-01-29T06:28:12.800Z,72.17
2023-01-29T06:30:43.810Z,72.86
2023-01-29T06:33:12.929Z,72.24
2023-01-29T06:35:44.431Z,71.72
2023-01-29T06:38:14.136Z,70.63
2023-01-29T06:40:52.609Z,71.03
2023-01-29T06:43:29.112Z,71.20
2023-01-29T06:46:09.688Z,71.93
2023-01-29T06:48:40.859Z,71.94
2023-01-29T06:51:25.243Z,71.47
2023-01-29T06:53:57.801Z,72.19
2023-01-29T06:56:31.613Z,72.13
2023-01-29T06:59:08.412Z,71.82
2023-01-29T07:01:44.612Z,71.71
2023-01-29T07:04:25.928Z,71.51
2023-01-29T07:06:57.663Z,72.05
2023-01-29T07:09:26.368Z,70.98
2023-01-29T07:11:55.915Z,70.29
2023-01-29T07:14:26.219Z,71.74
2023-01-29T07:17:12.327Z,72.18
2023-01-29T07:19:57.684Z,71.52
2023-01-29T07:22:38.616Z,72.20
2023-01-29T07:25:13.824Z,72.18
2023-01-29T07:27:54.450Z,71.44
2023-01-29T07:30:28.850Z,70.81
2023-01-29T07:33:07.562Z,71.55
2023-01-29T07:35:50.673Z,70.30
2023-01-29T07:42:33.124Z,71.15
2023-01-29T07:45:04.486Z,70.15
2023-01-29T07:47:34.419Z,69.82
2023-01-29T07:50:15.845Z,70.12
2023-01-29T07:52:49.688Z,70.39
2023-01-29T07:55:21.220Z,70.49
2023-01-29T07:58:05.427Z,71.42
2023-01-29T08:00:34.168Z,71.06
2023-01-29T08:03:17.876Z,71.00
2023-01-29T08:05:50.379Z,70.19
2023-01-29T08:08:25.108Z,69.79
2023-01-29T08:10:54.274Z,69.43
2023-01-29T08:13:34.508Z,70.04
2023-01-29T08:16:15.367Z,70.27
2023-01-29T08:18:48.946Z,70.01
2023-01-29T08:21:20.954Z,70.76
2023-01-29T08:23:55.355Z,70.64
2023-01-29T08:26:27.445Z,69.00
2023-01-29T08:29:12.148Z,68.65
2023-01-29T08:31:48.415Z,69.35
2023-01-29T08:34:27.753Z,69.44
2023-01-29T08:37:01.216Z,68.48
2023-01-29T08:39:34.650Z,68.09
2023-01-29T08:42:06.351Z,68.57
2023-01-29T08:47:31.174Z,68.76
2023-01-29T08:50:03.668Z,69.02
2023-01-29T08:52:38.613Z,68.70
2023-01-29T08:55:16.741Z,67.93
2023-01-29T08:57:59.994Z,67.64
2023-01-29T09:00:33.011Z,68.48
2023-01-29T09:03:19.016Z,68.64
2023-01-29T09:06:00.394Z,68.04
2023-01-29T09:08:40.015Z,68.17
2023-01-29T09:11:19.701Z,69.22
2023-01-29T09:13:49.428Z,69.14
2023-01-29T09:16:31.816Z,68.10
2023-01-29T09:19:03.796Z,67.83
2023-01-29T09:21:33.509Z,67.95
2023-01-29T09:24:03.203Z,67.67
2023-01-29T09:26:39.518Z,68.54
2023-01-29T09:29:11.767Z,68.24
2023-01-29T09:31:42.331Z,67.94
2023-01-29T09:34:29.414Z,68.62
2023-01-29T09:37:00.102Z,69.09
2023-01-29T09:39:32.837Z,68.18
2023-01-29T09:42:34.345Z,68.68
2023-01-29T09:45:19.112Z,68.03
2023-01-29T09:47:52.977Z,68.23
2023-01-29T09:50:40.277Z,67.77
2023-01-29T09:53:21.067Z,67.28
2023-01-29T09:55:55.841Z,68.08
2023-01-29T09:58:32.648Z,68.25
2023-01-29T10:04:25.884Z,67.42
2023-01-29T10:07:40.790Z,67.87
2023-01-29T10:10:50.868Z,68.02
2023-01-29T10:13:31.391Z,68.07
2023-01-29T10:16:22.133Z,67.80
2023-01-29T10:19:16.154Z,68.16
2023-01-29T10:22:03.216Z,68.72
2023-01-29T10:24:40.898Z,68.92
2023-01-29T10:27:19.879Z,67.82
2023-01-29T10:29:54.991Z,67.62
2023-01-29T10:32:27.092Z,68.66
2023-01-29T10:35:05.337Z,67.72
2023-01-29T10:37:45.412Z,67.52
2023-01-29T10:40:28.925Z,66.91
2023-01-29T10:43:06.193Z,65.45
2023-01-29T10:45:42.347Z,65.93
2023-01-29T10:48:44.538Z,66.72
2023-01-29T10:51:24.323Z,67.59
2023-01-29T10:54:08.479Z,66.68
2023-01-29T10:57:18.190Z,66.26
2023-01-29T11:00:09.973Z,67.22
2023-01-29T11:02:49.186Z,66.68
2023-01-29T11:05:24.897Z,66.67
2023-01-29T11:08:04.304Z,67.03
2023-01-29T11:10:45.179Z,67.77
2023-01-29T11:13:21.622Z,67.26
2023-01-29T11:15:53.799Z,68.27
2023-01-29T11:18:26.301Z,68.64
2023-01-29T11:21:08.410Z,68.36
2023-01-29T11:23:39.310Z,67.15
2023-01-29T11:26:16.529Z,67.88
2023-01-29T11:28:52.960Z,66.80
2023-01-29T11:31:30.698Z,66.70
2023-01-29T11:34:06.068Z,67.38
2023-01-29T11:36:45.276Z,67.21
2023-01-29T11:39:27.902Z,67.31
2023-01-29T11:42:15.120Z,67.91
2023-01-29T11:44:51.859Z,66.76
2023-01-29T11:47:30.451Z,66.84
2023-01-29T11:50:09.029Z,65.82
2023-01-29T11:52:48.689Z,65.23
2023-01-29T11:55:33.068Z,66.08
2023-01-29T11:58:13.492Z,65.13
2023-01-29T12:00:50.993Z,66.01
2023-01-29T12:03:36.935Z,65.50
2023-01-29T12:06:24.171Z,65.02
2023-01-29T12:08:59.578Z,65.73
2023-01-29T12:11:33.702Z,66.38
2023-01-29T12:14:05.078Z,65.95
2023-01-29T12:16:41.318Z,65.76
2023-01-29T12:19:19.420Z,67.15
2023-01-29T12:21:51.325Z,67.62
2023-01-29T12:24:37.561Z,66.41
2023-01-29T12:27:15.961Z,67.70
2023-01-29T12:29:55.929Z,67.05
2023-01-29T12:32:42.639Z,67.38
2023-01-29T12:35:19.083Z,67.81
2023-01-29T12:37:57.715Z,67.50
2023-01-29T12:40:33.792Z,68.01
2023-01-29T12:43:11.173Z,66.35
2023-01-29T12:45:42.311Z,67.33
2023-01-29T12:48:22.983Z,67.71
2023-01-29T12:50:54.373Z,66.41
2023-01-29T12:53:28.783Z,67.10
2023-01-29T12:56:05.116Z,67.62
2023-01-29T12:58:38.184Z,67.66
2023-01-29T13:01:20.232Z,67.96
2023-01-29T13:04:06.472Z,67.71
2023-01-29T13:06:43.300Z,68.17
2023-01-29T13:09:22.596Z,67.98
2023-01-29T13:11:55.857Z,68.66
2023-01-29T13:14:30.094Z,67.25
2023-01-29T13:17:24.280Z,67.15
2023-01-29T13:20:03.163Z,67.42
2023-01-29T13:22:41.977Z,68.94
2023-01-29T13:25:22.695Z,67.63
2023-01-29T13:27:55.598Z,67.93
2023-01-29T13:31:33.954Z,67.83
2023-01-29T13:34:11.879Z,67.72
2023-01-29T13:36:52.205Z,68.03
2023-01-29T13:39:28.785Z,67.23
2023-01-29T13:42:04.097Z,65.75
2023-01-29T13:44:36.101Z,67.88
2023-01-29T13:47:19.575Z,67.50
2023-01-29T13:49:56.672Z,67.76
2023-01-29T13:52:51.499Z,68.24
2023-01-29T13:55:38.896Z,68.18
2023-01-29T13:58:09.224Z,67.30
2023-01-29T14:00:58.188Z,67.53
2023-01-29T14:04:05.545Z,67.61
2023-01-29T14:07:34.344Z,68.57
2023-01-29T14:10:18.427Z,69.33
2023-01-29T14:12:51.647Z,68.31
2023-01-29T14:15:33.632Z,67.76
2023-01-29T14:18:39.502Z,68.01
2023-01-29T14:21:13.544Z,67.93
2023-01-29T14:23:48.971Z,68.13
2023-01-29T14:26:28.981Z,67.87
2023-01-29T14:29:14.378Z,69.23
2023-01-29T14:31:50.707Z,69.80
2023-01-29T14:34:31.576Z,69.73
2023-01-29T14:37:06.012Z,68.51
2023-01-29T14:39:39.447Z,68.59
2023-01-29T14:42:24.534Z,68.30
2023-01-29T14:45:29.043Z,69.34
2023-01-29T14:48:05.006Z,68.60
2023-01-29T14:50:59.442Z,70.26
2023-01-29T14:53:58.051Z,70.27
2023-01-29T14:56:35.110Z,69.68
2023-01-29T14:59:25.592Z,69.85
2023-01-29T15:02:01.188Z,69.77
2023-01-29T15:04:37.151Z,70.20
2023-01-29T15:07:17.329Z,70.30
2023-01-29T15:09:51.440Z,69.99
2023-01-29T15:12:37.668Z,70.90
2023-01-29T15:15:26.591Z,71.09
2023-01-29T15:18:00.947Z,71.70
2023-01-29T15:20:47.598Z,71.23
2023-01-29T15:23:31.882Z,71.67
2023-01-29T15:26:21.692Z,70.91
2023-01-29T15:29:03.237Z,72.17
2023-01-29T15:31:47.668Z,70.92
2023-01-29T15:34:25.885Z,72.05
2023-01-29T15:37:03.132Z,72.41
2023-01-29T15:39:44.367Z,72.29
2023-01-29T15:42:23.735Z,72.21
2023-01-29T15:45:05.871Z,72.67
2023-01-29T15:47:42.923Z,71.86
2023-01-29T15:50:26.293Z,72.95
2023-01-29T15:53:17.684Z,73.05
2023-01-29T15:55:52.896Z,73.35
2023-01-29T15:58:51.434Z,74.47
2023-01-29T16:01:26.077Z,73.56
2023-01-29T16:04:06.847Z,73.75
2023-01-29T16:06:49.900Z,74.10
2023-01-29T16:09:29.868Z,73.03
2023-01-29T16:12:05.425Z,73.83
2023-01-29T16:14:38.615Z,73.65
2023-01-29T16:17:32.659Z,74.23
2023-01-29T16:20:12.113Z,74.89
2023-01-29T16:25:27.876Z,73.79
2023-01-29T16:27:59.952Z,74.29
2023-01-29T16:30:37.749Z,74.83
2023-01-29T16:33:09.890Z,74.66
2023-01-29T16:35:51.796Z,75.12
2023-01-29T16:38:34.373Z,75.86
2023-01-29T16:41:34.554Z,76.33
2023-01-29T16:44:11.114Z,75.34
2023-01-29T16:46:43.841Z,75.49
2023-01-29T16:49:46.196Z,76.45
2023-01-29T16:52:30.260Z,75.54
2023-01-29T16:55:31.193Z,75.51
2023-01-29T16:58:20.315Z,74.08
2023-01-29T17:00:59.857Z,75.29
2023-01-29T17:03:39.488Z,75.29
2023-01-29T17:06:19.164Z,75.69
2023-01-29T17:08:55.508Z,74.96
2023-01-29T17:11:41.578Z,75.15
2023-01-29T17:14:14.577Z,75.57
2023-01-29T17:16:57.076Z,75.35
2023-01-29T17:19:36.469Z,75.24
2023-01-29T17:22:15.661Z,76.14
2023-01-29T17:25:01.120Z,75.42
2023-01-29T17:27:37.872Z,76.06
2023-01-29T17:30:22.189Z,74.96
2023-01-29T17:32:54.564Z,75.31
2023-01-29T17:35:40.398Z,76.15
2023-01-29T17:38:25.837Z,75.98
2023-01-29T17:41:06.647Z,76.29
2023-01-29T17:43:37.947Z,74.97
2023-01-29T17:46:15.531Z,76.32
2023-01-29T17:48:46.123Z,76.20
2023-01-29T17:51:33.064Z,75.84
2023-01-29T17:54:18.795Z,76.36
2023-01-29T17:57:08.377Z,76.55
2023-01-29T17:59:44.466Z,76.89
2023-01-29T18:02:29.580Z,77.12
2023-01-29T18:05:03.889Z,76.93
2023-01-29T18:07:38.411Z,76.68
2023-01-29T18:10:22.334Z,76.98
2023-01-29T18:13:14.000Z,76.73
2023-01-29T18:15:45.629Z,78.00
2023-01-29T18:18:32.022Z,77.36
2023-01-29T18:21:13.322Z,78.06
2023-01-29T18:23:53.626Z,78.22
2023-01-29T18:26:24.714Z,78.64
2023-01-29T18:28:58.146Z,78.35
2023-01-29T18:31:45.897Z,78.57
2023-01-29T18:34:24.933Z,78.40
2023-01-29T18:36:56.042Z,78.64
2023-01-29T18:39:36.293Z,79.08
2023-01-29T18:42:06.694Z,79.61
2023-01-29T18:44:43.527Z,78.81
2023-01-29T18:47:22.472Z,79.79
2023-01-29T18:49:55.701Z,79.72
2023-01-29T18:52:36.701Z,79.85
2023-01-29T18:55:11.037Z,79.67
2023-01-29T18:58:28.262Z,80.12
2023-01-29T19:00:53.710Z,80.01
2023-01-29T19:03:34.549Z,78.57
2023-01-29T19:06:09.003Z,78.66
2023-01-29T19:08:44.994Z,78.06
2023-01-29T19:11:32.258Z,78.35
2023-01-29T19:14:19.800Z,78.98
2023-01-29T19:17:08.795Z,78.22
2023-01-29T19:22:25.000Z,78.07
2023-01-29T19:25:04.207Z,77.52
2023-01-29T19:27:35.485Z,77.82
2023-01-29T19:30:25.552Z,78.07
2023-01-29T19:33:04.046Z,78.25
2023-01-29T19:35:55.171Z,78.36
2023-01-29T19:38:34.043Z,77.92
2023-01-29T19:41:27.363Z,78.39
2023-01-29T19:44:14.612Z,77.50
2023-01-29T19:46:47.510Z,78.31
2023-01-29T19:49:37.143Z,77.58
2023-01-29T19:52:50.683Z,77.90
2023-01-29T19:55:34.679Z,78.06
2023-01-29T19:58:14.359Z,78.30
2023-01-29T20:00:45.773Z,77.57
2023-01-29T20:03:21.791Z,77.71
2023-01-29T20:06:03.633Z,78.48
2023-01-29T20:08:36.270Z,78.67
2023-01-29T20:11:27.656Z,77.75
2023-01-29T20:14:01.650Z,77.96
2023-01-29T20:16:34.612Z,78.11
2023-01-29T20:19:13.738Z,77.35
2023-01-29T20:21:55.596Z,76.76
2023-01-29T20:24:41.407Z,77.37
2023-01-29T20:27:18.061Z,77.94
2023-01-29T20:29:54.998Z,77.13
2023-01-29T20:32:37.046Z,78.18
2023-01-29T20:35:17.971Z,77.95
2023-01-29T20:38:10.352Z,77.70
2023-01-29T20:40:41.683Z,77.98
2023-01-29T20:43:16.393Z,77.90
2023-01-29T20:45:51.724Z,78.07
2023-01-29T20:48:31.745Z,76.80
2023-01-29T20:51:13.181Z,75.99
2023-01-29T20:53:55.879Z,76.85
2023-01-29T20:56:36.483Z,79.02
2023-01-29T20:59:15.094Z,80.19
2023-01-29T21:01:57.348Z,80.58
2023-01-29T21:04:28.578Z,81.89
2023-01-29T21:06:59.321Z,82.13
2023-01-29T21:09:52.757Z,82.38
2023-01-29T21:12:26.565Z,82.54
2023-01-29T21:15:16.060Z,82.42
2023-01-29T21:17:58.556Z,82.97
2023-01-29T21:20:38.690Z,83.65
2023-01-29T21:23:21.880Z,84.05
2023-01-29T21:26:00.572Z,83.63
2023-01-29T21:28:32.673Z,84.73
2023-01-29T21:31:21.617Z,84.04
2023-01-29T21:34:02.031Z,84.95
2023-01-29T21:36:39.169Z,84.85
2023-01-29T21:39:24.588Z,84.93
2023-01-29T21:45:01.480Z,84.38
2023-01-29T21:47:34.107Z,84.52
2023-01-29T21:50:08.152Z,85.01
2023-01-29T21:52:37.089Z,84.53
2023-01-29T21:55:11.386Z,84.65
2023-01-29T21:57:45.584Z,84.37
2023-01-29T22:00:23.819Z,85.18
2023-01-29T22:02:55.837Z,84.65
2023-01-29T22:05:29.191Z,84.26
2023-01-29T22:08:06.023Z,83.26
2023-01-29T22:10:37.897Z,83.50
2023-01-29T22:13:10.562Z,83.51
2023-01-29T22:15:41.666Z,82.14
2023-01-29T22:18:17.264Z,81.51
2023-01-29T22:20:54.092Z,82.37
2023-01-29T22:23:22.898Z,81.70
2023-01-29T22:25:53.753Z,80.83
2023-01-29T22:28:33.934Z,81.59
2023-01-29T22:31:18.559Z,81.78
2023-01-29T22:33:50.335Z,81.04
2023-01-29T22:36:22.350Z,81.18
2023-01-29T22:38:53.724Z,80.65
2023-01-29T22:41:22.701Z,81.64
2023-01-29T22:43:57.621Z,80.99
2023-01-29T22:46:40.783Z,81.83
2023-01-29T22:49:17.778Z,81.39
2023-01-29T22:51:54.369Z,81.03
2023-01-29T22:54:24.290Z,81.70
2023-01-29T22:56:55.263Z,82.49
2023-01-29T22:59:30.130Z,82.12
2023-01-29T23:02:01.402Z,81.37
2023-01-29T23:04:33.478Z,81.90
2023-01-29T23:07:04.860Z,81.55
2023-01-29T23:09:35.545Z,82.41
2023-01-29T23:12:09.107Z,81.76
2023-01-29T23:14:45.896Z,81.50
2023-01-29T23:17:15.225Z,82.50
2023-01-29T23:19:51.642Z,82.13
2023-01-29T23:22:23.428Z,80.97
2023-01-29T23:24:56.406Z,81.82
2023-01-29T23:30:23.857Z,82.41
2023-01-29T23:32:55.492Z,81.46
2023-01-29T23:35:25.286Z,82.74
2023-01-29T23:37:58.217Z,83.23
2023-01-29T23:40:30.020Z,82.84
2023-01-29T23:42:59.033Z,81.68
2023-01-29T23:45:32.258Z,81.79
2023-01-29T23:48:01.245Z,82.13
2023-01-29T23:50:33.306Z,81.33
2023-01-29T23:53:04.608Z,81.21
2023-01-29T23:55:34.302Z,81.16
2023-01-29T23:58:02.803Z,82.00
